Time;durP1;ratioP1;P1;durP2;ratioP2;P2;SDS_P1;SDS_P2;PMS_P1;PMS_P2;Temp;Humidity;BMP_temperature;BMP_pressure;BME280_temperature;BME280_humidity;BME280_pressure;Samples;Min_cycle;Max_cycle;Signal;HPM_P1;HPM_P2
2023/12/22 00:00:47;;;;;;;6.88;2.83;;;19.00;57.00;;;;;;4967466;28;20383;-63
2023/12/22 00:03:14;;;;;;;9.02;3.30;;;19.00;57.10;;;;;;4966222;28;20180;-63
2023/12/22 00:05:40;;;;;;;10.48;3.10;;;19.10;57.50;;;;;;4963791;28;20051;-63
2023/12/22 00:08:05;;;;;;;10.15;2.95;;;19.10;57.30;;;;;;4972210;28;20066;-63
2023/12/22 00:10:31;;;;;;;10.68;2.90;;;19.00;57.50;;;;;;4967063;28;20084;-63
2023/12/22 00:12:57;;;;;;;7.78;2.70;;;19.10;58.10;;;;;;4956670;28;20031;-62
2023/12/22 00:15:23;;;;;;;8.73;3.10;;;19.00;58.40;;;;;;4960606;28;20433;-63
2023/12/22 00:17:49;;;;;;;7.70;2.83;;;19.00;57.80;;;;;;4967649;28;20173;-63
2023/12/22 00:20:15;;;;;;;8.25;2.83;;;19.10;57.50;;;;;;4967240;28;20450;-63
2023/12/22 00:22:40;;;;;;;7.72;3.10;;;19.00;58.00;;;;;;4958844;28;20027;-63
2023/12/22 00:25:07;;;;;;;8.93;3.53;;;19.10;58.00;;;;;;4953476;28;20043;-63
2023/12/22 00:27:33;;;;;;;7.13;2.60;;;19.10;58.20;;;;;;4956516;28;20019;-63
2023/12/22 00:29:59;;;;;;;9.25;3.20;;;19.00;58.00;;;;;;4971381;28;20054;-63
2023/12/22 00:32:25;;;;;;;10.18;2.95;;;19.10;58.40;;;;;;4963977;28;20030;-62
2023/12/22 00:34:51;;;;;;;8.73;2.85;;;19.00;58.60;;;;;;4964382;28;20038;-63
2023/12/22 00:37:17;;;;;;;9.63;2.80;;;19.10;58.20;;;;;;4969068;28;20030;-63
2023/12/22 00:39:42;;;;;;;10.77;2.70;;;19.10;58.60;;;;;;4966058;28;20032;-63
2023/12/22 00:42:08;;;;;;;9.73;3.08;;;19.10;58.70;;;;;;4969286;28;20027;-63
2023/12/22 00:44:34;;;;;;;13.18;2.90;;;19.10;58.30;;;;;;4966209;28;20034;-63
2023/12/22 00:47:00;;;;;;;7.30;2.75;;;19.10;57.70;;;;;;4964274;28;20034;-63
2023/12/22 00:49:25;;;;;;;11.00;2.90;;;19.10;57.90;;;;;;4969894;28;20031;-63
2023/12/22 00:51:51;;;;;;;9.07;3.10;;;19.10;58.40;;;;;;4969661;28;20035;-63
2023/12/22 00:54:17;;;;;;;10.20;2.70;;;19.10;57.90;;;;;;4962002;28;20031;-63
2023/12/22 00:56:42;;;;;;;8.32;2.70;;;19.10;58.20;;;;;;4952146;28;20066;-63
2023/12/22 00:59:08;;;;;;;8.30;2.80;;;19.10;57.60;;;;;;4989544;23;20043;-62
2023/12/22 01:01:34;;;;;;;6.20;2.83;;;19.10;57.60;;;;;;4964144;28;20109;-62
2023/12/22 01:04:00;;;;;;;8.35;2.58;;;19.10;57.50;;;;;;4965296;28;20051;-63
2023/12/22 01:06:25;;;;;;;12.45;2.67;;;19.10;57.70;;;;;;4966074;28;20118;-63
2023/12/22 01:08:51;;;;;;;5.93;2.38;;;19.10;57.50;;;;;;4970098;28;20249;-63
2023/12/22 01:11:17;;;;;;;12.75;2.92;;;19.10;57.50;;;;;;4960020;28;20023;-63
2023/12/22 01:13:43;;;;;;;8.02;2.70;;;19.00;57.70;;;;;;4958527;28;20073;-63
2023/12/22 01:16:09;;;;;;;8.80;2.60;;;19.00;58.20;;;;;;4946860;29;20031;-63
2023/12/22 01:18:35;;;;;;;5.95;2.20;;;19.00;57.50;;;;;;4961830;28;20031;-63
2023/12/22 01:21:01;;;;;;;9.15;3.00;;;19.00;57.60;;;;;;4954391;28;20063;-62
2023/12/22 01:23:27;;;;;;;12.30;2.70;;;19.10;58.30;;;;;;4952176;28;20026;-63
2023/12/22 01:25:52;;;;;;;8.88;2.47;;;19.00;57.90;;;;;;4967494;28;20424;-63
2023/12/22 01:28:18;;;;;;;7.05;2.55;;;19.00;58.30;;;;;;5026320;28;20586;-62
2023/12/22 01:30:44;;;;;;;9.63;2.65;;;19.00;57.40;;;;;;4966185;28;20035;-63
2023/12/22 01:33:10;;;;;;;10.32;3.00;;;19.00;58.00;;;;;;4933515;28;20039;-62
2023/12/22 01:35:35;;;;;;;10.93;2.53;;;19.00;58.10;;;;;;4952469;28;20031;-63
2023/12/22 01:38:01;;;;;;;6.95;2.83;;;19.00;57.60;;;;;;4947843;28;20024;-63
2023/12/22 01:40:27;;;;;;;13.05;2.90;;;19.00;57.70;;;;;;4950985;28;20156;-63
2023/12/22 01:42:53;;;;;;;10.25;2.75;;;19.00;58.10;;;;;;4957756;28;20033;-63
2023/12/22 01:45:19;;;;;;;9.57;2.70;;;19.00;57.60;;;;;;4955194;28;20039;-63
2023/12/22 01:47:46;;;;;;;8.10;2.53;;;19.00;58.30;;;;;;4958072;28;20502;-63
2023/12/22 01:50:14;;;;;;;7.97;2.45;;;19.00;57.60;;;;;;4957169;28;20039;-63
2023/12/22 01:52:43;;;;;;;7.80;2.63;;;18.90;57.80;;;;;;4961496;28;20034;-60
2023/12/22 01:55:11;;;;;;;8.90;2.67;;;19.00;58.20;;;;;;4962995;28;20035;-62
2023/12/22 01:57:38;;;;;;;6.53;2.45;;;19.00;58.70;;;;;;4984241;28;20145;-63
2023/12/22 02:00:04;;;;;;;5.90;2.45;;;18.90;57.80;;;;;;4951367;28;20035;-62
2023/12/22 02:02:40;;;;;;;9.65;2.53;;;19.00;58.50;;;;;;4960152;28;20114;-63
2023/12/22 02:05:09;;;;;;;9.50;2.65;;;19.00;58.80;;;;;;4959216;28;20035;-63
2023/12/22 02:07:35;;;;;;;5.93;2.40;;;19.00;58.50;;;;;;4954583;28;20030;-63
2023/12/22 02:10:01;;;;;;;5.90;2.53;;;18.90;58.80;;;;;;4944586;28;20027;-62
2023/12/22 02:12:26;;;;;;;7.72;2.60;;;18.90;59.00;;;;;;4957634;28;20035;-63
2023/12/22 02:14:52;;;;;;;7.88;2.30;;;19.00;58.90;;;;;;4960050;28;20038;-63
2023/12/22 02:17:45;;;;;;;7.93;2.60;;;18.90;58.80;;;;;;4964672;28;20039;-63
2023/12/22 02:20:11;;;;;;;8.30;2.60;;;18.90;59.00;;;;;;4933647;28;20506;-63
2023/12/22 02:22:37;;;;;;;7.43;3.08;;;18.90;58.80;;;;;;4938839;28;20032;-61
2023/12/22 02:25:03;;;;;;;6.60;2.40;;;19.00;59.70;;;;;;4965071;28;20027;-60
2023/12/22 02:27:40;;;;;;;7.70;2.53;;;19.00;59.80;;;;;;4955448;28;20038;-63
2023/12/22 02:30:13;;;;;;;10.18;2.50;;;18.90;60.00;;;;;;4957327;28;20422;-63
2023/12/22 02:32:44;;;;;;;7.30;2.67;;;18.90;60.10;;;;;;4980529;28;20069;-63
2023/12/22 02:35:15;;;;;;;11.52;2.33;;;18.90;60.10;;;;;;4943812;28;20037;-62
2023/12/22 02:37:43;;;;;;;10.30;2.65;;;19.00;58.00;;;;;;4951260;28;20031;-62
2023/12/22 02:40:10;;;;;;;10.60;2.65;;;19.10;59.00;;;;;;4957355;28;20459;-63
2023/12/22 02:42:37;;;;;;;7.43;2.40;;;19.00;60.10;;;;;;4935460;28;20031;-63
2023/12/22 02:45:05;;;;;;;7.97;2.47;;;19.00;59.90;;;;;;4968087;28;20042;-61
2023/12/22 02:47:32;;;;;;;14.93;2.90;;;19.10;59.40;;;;;;4956624;28;20023;-63
2023/12/22 02:49:57;;;;;;;9.13;2.53;;;19.00;60.20;;;;;;4963231;28;20063;-62
2023/12/22 02:52:24;;;;;;;8.18;2.70;;;19.00;59.50;;;;;;4952434;28;20528;-61
2023/12/22 02:54:49;;;;;;;10.57;2.67;;;19.00;58.30;;;;;;4958580;28;20106;-61
2023/12/22 02:57:15;;;;;;;5.68;2.03;;;19.00;59.00;;;;;;4961027;28;20105;-62
2023/12/22 02:59:41;;;;;;;11.55;2.80;;;19.00;58.20;;;;;;4959894;28;20055;-62
2023/12/22 03:02:07;;;;;;;6.30;2.33;;;19.00;58.20;;;;;;5022407;28;20106;-63
2023/12/22 03:04:32;;;;;;;6.88;2.42;;;19.00;58.10;;;;;;4958655;28;20027;-63
2023/12/22 03:06:58;;;;;;;12.43;2.70;;;18.90;57.90;;;;;;4961190;28;20073;-63
2023/12/22 03:09:24;;;;;;;8.20;2.45;;;19.00;58.00;;;;;;4953563;28;20035;-63
2023/12/22 03:11:51;;;;;;;8.02;2.50;;;18.90;58.20;;;;;;4959757;28;20632;-63
2023/12/22 03:14:17;;;;;;;9.93;2.60;;;18.90;58.10;;;;;;4949929;28;20023;-63
2023/12/22 03:16:43;;;;;;;8.15;2.05;;;18.90;58.20;;;;;;4963712;28;20068;-63
2023/12/22 03:19:09;;;;;;;6.38;2.15;;;18.90;58.50;;;;;;4963942;28;20035;-63
2023/12/22 03:21:34;;;;;;;6.70;2.03;;;18.90;58.80;;;;;;4960632;28;20034;-63
2023/12/22 03:24:00;;;;;;;7.93;2.50;;;18.90;58.90;;;;;;4957071;28;20509;-62
2023/12/22 03:26:29;;;;;;;5.55;2.13;;;18.90;58.90;;;;;;4959329;28;20029;-63
2023/12/22 03:28:55;;;;;;;6.50;2.60;;;18.90;59.00;;;;;;4960106;28;20027;-63
2023/12/22 03:31:20;;;;;;;5.90;2.22;;;18.90;59.30;;;;;;4956044;28;20382;-63
2023/12/22 03:33:46;;;;;;;8.40;2.60;;;18.90;60.10;;;;;;5017955;28;20079;-63
2023/12/22 03:36:12;;;;;;;6.55;2.50;;;18.90;60.40;;;;;;4969919;28;20444;-63
2023/12/22 03:38:37;;;;;;;6.72;2.20;;;18.90;59.30;;;;;;4963017;28;20055;-63
2023/12/22 03:41:03;;;;;;;7.72;2.30;;;18.90;60.80;;;;;;4962010;28;20398;-63
2023/12/22 03:43:31;;;;;;;7.45;2.38;;;18.90;59.30;;;;;;4958180;28;20035;-63
2023/12/22 03:45:57;;;;;;;7.68;2.35;;;18.90;57.90;;;;;;4939021;28;20034;-62
2023/12/22 03:48:22;;;;;;;8.27;2.13;;;18.90;57.80;;;;;;4958191;28;20031;-62
2023/12/22 03:50:48;;;;;;;6.35;2.42;;;18.90;58.40;;;;;;4961759;28;20179;-62
2023/12/22 03:53:14;;;;;;;10.90;2.78;;;18.90;60.40;;;;;;4964335;28;20106;-61
2023/12/22 03:55:40;;;;;;;11.77;2.05;;;18.90;59.50;;;;;;4953316;28;20392;-62
2023/12/22 03:58:07;;;;;;;7.10;2.10;;;18.90;59.70;;;;;;4966504;28;20031;-63
2023/12/22 04:00:33;;;;;;;6.70;2.42;;;18.80;59.80;;;;;;4960389;28;20023;-63
2023/12/22 04:02:59;;;;;;;7.45;2.38;;;18.90;58.30;;;;;;4978621;28;20520;-63
2023/12/22 04:05:25;;;;;;;6.47;2.60;;;18.90;59.60;;;;;;5036023;28;20049;-63
2023/12/22 04:07:50;;;;;;;6.22;2.05;;;18.90;60.80;;;;;;4943564;28;20022;-63
2023/12/22 04:10:17;;;;;;;10.95;2.35;;;18.80;60.10;;;;;;4964537;28;20031;-63
2023/12/22 04:12:43;;;;;;;11.35;2.15;;;18.80;62.10;;;;;;4954443;28;20063;-63
2023/12/22 04:15:09;;;;;;;6.18;2.25;;;18.80;62.10;;;;;;4957323;28;20073;-63
2023/12/22 04:17:35;;;;;;;10.77;2.20;;;18.80;60.80;;;;;;4943758;28;20032;-63
2023/12/22 04:20:01;;;;;;;6.15;2.25;;;18.80;60.90;;;;;;4946800;28;20065;-63
2023/12/22 04:22:27;;;;;;;8.60;2.40;;;18.80;60.80;;;;;;4970182;28;20054;-63
2023/12/22 04:24:53;;;;;;;8.07;2.42;;;18.80;59.20;;;;;;4963995;28;20073;-63
2023/12/22 04:27:19;;;;;;;7.20;2.15;;;18.80;60.90;;;;;;4960916;28;20031;-63
2023/12/22 04:29:44;;;;;;;4.55;2.10;;;18.80;61.10;;;;;;4960962;28;20030;-63
2023/12/22 04:32:10;;;;;;;6.45;1.80;;;18.80;60.60;;;;;;4973345;28;20029;-63
2023/12/22 04:34:36;;;;;;;5.57;2.17;;;18.80;59.10;;;;;;5042023;28;20116;-63
2023/12/22 04:37:02;;;;;;;5.80;1.73;;;18.80;60.20;;;;;;4977350;28;20038;-63
2023/12/22 04:39:27;;;;;;;8.13;1.88;;;18.80;60.60;;;;;;4947961;28;20032;-63
2023/12/22 04:41:53;;;;;;;7.28;1.80;;;18.90;59.50;;;;;;4963654;28;20031;-63
2023/12/22 04:44:19;;;;;;;4.85;1.95;;;18.80;59.70;;;;;;4962835;28;20172;-63
2023/12/22 04:46:44;;;;;;;8.52;2.10;;;18.90;59.60;;;;;;4961661;28;20474;-63
2023/12/22 04:49:10;;;;;;;4.45;1.95;;;18.80;58.80;;;;;;4949239;28;20023;-63
2023/12/22 04:51:36;;;;;;;5.78;2.10;;;18.90;60.50;;;;;;4957470;28;20031;-63
2023/12/22 04:54:02;;;;;;;5.10;1.90;;;18.90;58.50;;;;;;4960951;28;20053;-63
2023/12/22 04:56:28;;;;;;;4.38;1.95;;;18.90;59.10;;;;;;4959211;28;20024;-63
2023/12/22 04:58:53;;;;;;;6.60;2.58;;;18.90;57.30;;;;;;4960136;28;20027;-62
2023/12/22 05:01:19;;;;;;;7.65;1.83;;;18.90;56.90;;;;;;4946109;28;20494;-63
2023/12/22 05:03:45;;;;;;;4.18;1.67;;;18.90;57.50;;;;;;5027759;28;20035;-63
2023/12/22 05:06:11;;;;;;;4.55;1.70;;;18.90;57.10;;;;;;5000634;28;20036;-63
2023/12/22 05:08:36;;;;;;;7.70;2.00;;;19.00;57.30;;;;;;4963010;28;20394;-63
2023/12/22 05:11:03;;;;;;;4.57;1.80;;;19.00;57.00;;;;;;4939443;28;20526;-63
2023/12/22 05:13:28;;;;;;;5.00;1.80;;;19.00;57.00;;;;;;4965130;28;20031;-63
2023/12/22 05:15:54;;;;;;;3.55;1.63;;;19.00;57.40;;;;;;4959283;28;20504;-63
2023/12/22 05:18:21;;;;;;;4.72;2.00;;;19.00;57.50;;;;;;4963539;28;20075;-62
2023/12/22 05:20:46;;;;;;;6.45;1.90;;;19.00;57.60;;;;;;4949716;28;20106;-63
2023/12/22 05:23:12;;;;;;;4.63;1.85;;;19.00;57.60;;;;;;4963187;28;20160;-63
2023/12/22 05:25:38;;;;;;;5.57;1.70;;;19.00;58.10;;;;;;4961096;28;20066;-62
2023/12/22 05:28:04;;;;;;;7.18;1.92;;;19.00;57.90;;;;;;4958986;28;20039;-63
2023/12/22 05:30:29;;;;;;;5.38;1.58;;;19.00;58.20;;;;;;4950690;28;20027;-63
2023/12/22 05:32:55;;;;;;;4.53;2.08;;;19.00;57.80;;;;;;4948706;28;20026;-63
2023/12/22 05:35:21;;;;;;;4.78;1.80;;;19.00;57.30;;;;;;4975984;28;20027;-62
2023/12/22 05:37:47;;;;;;;6.30;1.90;;;19.00;57.30;;;;;;4953690;28;20039;-63
2023/12/22 05:40:13;;;;;;;2.78;1.58;;;19.00;57.80;;;;;;4958873;28;20038;-63
2023/12/22 05:42:39;;;;;;;3.97;1.90;;;19.00;57.60;;;;;;4955212;28;20387;-62
2023/12/22 05:45:07;;;;;;;4.75;1.80;;;19.00;57.30;;;;;;4956641;28;20027;-63
2023/12/22 05:47:33;;;;;;;3.70;1.83;;;19.00;57.60;;;;;;4947500;28;20024;-62
2023/12/22 05:49:59;;;;;;;5.22;2.10;;;19.00;57.70;;;;;;4961563;28;20084;-63
2023/12/22 05:52:25;;;;;;;5.15;2.05;;;19.00;57.70;;;;;;4955239;28;20119;-63
2023/12/22 05:54:51;;;;;;;3.92;1.75;;;19.00;57.90;;;;;;4966518;28;20110;-63
2023/12/22 05:57:16;;;;;;;4.68;1.95;;;19.00;57.50;;;;;;4955406;28;20118;-63
2023/12/22 05:59:42;;;;;;;3.13;1.70;;;19.00;57.90;;;;;;4956512;28;20031;-63
2023/12/22 06:02:08;;;;;;;5.18;2.25;;;19.00;58.30;;;;;;4953706;28;20027;-62
2023/12/22 06:04:34;;;;;;;3.58;1.98;;;19.00;58.40;;;;;;4950701;28;20030;-63
2023/12/22 06:07:00;;;;;;;4.97;1.80;;;19.00;58.20;;;;;;5032455;28;20021;-63
2023/12/22 06:09:26;;;;;;;6.10;2.10;;;19.00;58.10;;;;;;5000391;28;20038;-63
2023/12/22 06:11:53;;;;;;;8.93;2.13;;;19.00;58.10;;;;;;4957614;28;20119;-63
2023/12/22 06:14:19;;;;;;;5.00;2.00;;;19.00;59.10;;;;;;4945897;28;20023;-62
2023/12/22 06:16:44;;;;;;;4.65;1.75;;;19.00;58.30;;;;;;4946717;28;20528;-62
2023/12/22 06:19:10;;;;;;;4.38;2.10;;;19.00;58.90;;;;;;4963637;28;20379;-62
2023/12/22 06:21:39;;;;;;;6.53;2.13;;;19.00;58.30;;;;;;4947803;28;20028;-61
2023/12/22 06:24:06;;;;;;;4.90;2.00;;;19.00;58.40;;;;;;4958387;28;20031;-63
2023/12/22 06:26:32;;;;;;;3.58;1.88;;;19.00;58.10;;;;;;4946620;28;20510;-62
2023/12/22 06:28:58;;;;;;;3.72;2.22;;;19.00;59.10;;;;;;4957857;28;20023;-63
2023/12/22 06:31:23;;;;;;;5.38;2.35;;;19.00;58.60;;;;;;4957823;28;20019;-60
2023/12/22 06:33:51;;;;;;;5.22;1.85;;;19.00;59.40;;;;;;4948888;28;20079;-63
2023/12/22 06:36:25;;;;;;;6.28;2.25;;;19.00;58.40;;;;;;4956076;28;20646;-63
2023/12/22 06:38:53;;;;;;;4.25;2.03;;;19.00;58.80;;;;;;4998448;28;20023;-63
2023/12/22 06:41:23;;;;;;;5.78;2.20;;;19.00;59.20;;;;;;4957390;28;20504;-63
2023/12/22 06:43:50;;;;;;;6.72;1.98;;;19.00;58.90;;;;;;4947147;28;20311;-63
2023/12/22 06:46:21;;;;;;;3.85;1.95;;;19.00;59.20;;;;;;4951235;28;20024;-63
2023/12/22 06:48:48;;;;;;;4.55;2.30;;;19.00;58.70;;;;;;4956955;28;20027;-63
2023/12/22 06:51:35;;;;;;;4.55;2.00;;;19.00;59.10;;;;;;4963160;28;20034;-63
2023/12/22 06:54:02;;;;;;;5.78;2.35;;;19.00;59.00;;;;;;4952817;28;20125;-63
2023/12/22 06:56:29;;;;;;;7.55;2.28;;;19.00;59.10;;;;;;4953645;28;20034;-63
2023/12/22 06:58:57;;;;;;;6.50;2.30;;;19.00;59.40;;;;;;4976096;23;20456;-62
2023/12/22 07:01:31;;;;;;;6.18;2.17;;;19.00;58.80;;;;;;4963700;28;20122;-63
2023/12/22 07:04:00;;;;;;;5.30;2.00;;;19.00;58.80;;;;;;4961064;28;20478;-63
2023/12/22 07:06:28;;;;;;;4.22;1.95;;;19.00;58.30;;;;;;4968649;28;20061;-63
2023/12/22 07:09:19;;;;;;;6.88;2.30;;;19.00;58.30;;;;;;4983286;28;20080;-63
2023/12/22 07:11:50;;;;;;;3.30;2.00;;;19.00;57.30;;;;;;4973837;28;20043;-63
2023/12/22 07:14:16;;;;;;;5.28;2.70;;;19.10;58.20;;;;;;4984096;28;20017;-63
2023/12/22 07:16:42;;;;;;;5.30;2.40;;;19.00;58.10;;;;;;4967495;28;20027;-63
2023/12/22 07:19:08;;;;;;;4.43;2.30;;;19.00;58.50;;;;;;4969638;28;20034;-63
2023/12/22 07:21:34;;;;;;;5.35;2.22;;;19.00;58.30;;;;;;4968977;28;20375;-63
2023/12/22 07:24:01;;;;;;;5.32;2.28;;;19.00;57.60;;;;;;4967312;28;20102;-63
2023/12/22 07:26:27;;;;;;;6.13;2.20;;;19.10;58.70;;;;;;4968875;28;20023;-63
2023/12/22 07:28:53;;;;;;;7.80;2.40;;;19.00;58.80;;;;;;4968967;28;20027;-63
2023/12/22 07:31:19;;;;;;;4.70;2.25;;;19.00;58.10;;;;;;4968906;28;20226;-63
2023/12/22 07:33:45;;;;;;;7.40;2.67;;;19.00;57.60;;;;;;4965935;28;20055;-63
2023/12/22 07:36:11;;;;;;;5.88;2.33;;;19.10;59.40;;;;;;4967053;28;20121;-63
2023/12/22 07:38:39;;;;;;;6.13;2.13;;;19.10;58.10;;;;;;4968825;28;20031;-63
2023/12/22 07:41:05;;;;;;;6.68;2.78;;;19.00;57.70;;;;;;4962649;28;20039;-63
2023/12/22 07:43:31;;;;;;;6.20;2.55;;;19.00;57.30;;;;;;4953089;28;20019;-63
2023/12/22 07:45:57;;;;;;;8.07;2.25;;;19.10;57.10;;;;;;4964346;28;20031;-63
2023/12/22 07:48:25;;;;;;;7.68;2.40;;;19.10;59.60;;;;;;4963703;28;20023;-62
2023/12/22 07:50:50;;;;;;;7.00;2.50;;;19.10;59.50;;;;;;4958761;28;20030;-62
2023/12/22 07:53:16;;;;;;;7.57;2.92;;;19.10;57.80;;;;;;4966233;28;20520;-62
2023/12/22 07:55:44;;;;;;;7.28;2.60;;;19.10;58.30;;;;;;4969518;28;20019;-62
2023/12/22 07:58:10;;;;;;;8.02;2.95;;;19.10;58.10;;;;;;4969998;28;20046;-62
2023/12/22 08:00:36;;;;;;;9.23;2.88;;;19.10;59.20;;;;;;4969738;28;20041;-60
2023/12/22 08:03:03;;;;;;;12.73;2.60;;;19.10;59.10;;;;;;4966737;28;20643;-62
2023/12/22 08:05:29;;;;;;;8.10;2.58;;;19.20;58.50;;;;;;4960803;28;20081;-62
2023/12/22 08:07:56;;;;;;;9.73;2.67;;;19.10;59.10;;;;;;4964910;28;20030;-62
2023/12/22 08:10:21;;;;;;;11.82;2.63;;;19.10;58.60;;;;;;4966739;28;20414;-62
2023/12/22 08:12:47;;;;;;;13.45;2.75;;;19.10;58.50;;;;;;4971159;28;20033;-62
2023/12/22 08:15:13;;;;;;;11.77;2.10;;;19.20;58.70;;;;;;4958362;28;20034;-62
2023/12/22 08:17:51;;;;;;;10.30;2.30;;;19.10;58.10;;;;;;4952755;28;20035;-63
2023/12/22 08:20:19;;;;;;;5.20;2.35;;;19.20;57.70;;;;;;4964394;28;20035;-62
2023/12/22 08:22:46;;;;;;;8.82;2.83;;;19.10;58.00;;;;;;4966564;28;20026;-62
2023/12/22 08:25:12;;;;;;;7.53;2.30;;;19.10;57.60;;;;;;4967285;28;20059;-62
2023/12/22 08:27:38;;;;;;;11.00;2.63;;;19.10;57.90;;;;;;4970500;28;20019;-62
2023/12/22 08:30:04;;;;;;;13.05;2.67;;;19.10;57.90;;;;;;4966711;28;20027;-62
2023/12/22 08:32:30;;;;;;;6.68;2.22;;;19.10;58.90;;;;;;4970647;28;20034;-62
2023/12/22 08:34:56;;;;;;;12.65;2.90;;;19.10;57.80;;;;;;4967993;28;20023;-62
2023/12/22 08:37:22;;;;;;;11.43;2.70;;;19.10;58.00;;;;;;4964698;28;20030;-63
2023/12/22 08:39:48;;;;;;;8.93;2.83;;;19.10;58.40;;;;;;4962466;28;20042;-62
2023/12/22 08:42:14;;;;;;;5.97;2.30;;;19.20;58.00;;;;;;4966086;28;20023;-62
2023/12/22 08:44:40;;;;;;;8.45;1.90;;;19.20;58.70;;;;;;4968317;28;20023;-62
2023/12/22 08:47:06;;;;;;;5.80;2.50;;;19.20;58.40;;;;;;4959106;28;20038;-62
2023/12/22 08:49:31;;;;;;;10.35;2.33;;;19.20;58.60;;;;;;4967715;28;20030;-63
2023/12/22 08:51:57;;;;;;;12.63;2.90;;;19.20;59.60;;;;;;4960370;28;20058;-63
2023/12/22 08:54:23;;;;;;;9.85;2.50;;;19.20;59.80;;;;;;4967507;28;20479;-61
2023/12/22 08:56:49;;;;;;;13.95;3.20;;;19.30;59.70;;;;;;4966120;28;20049;-62
2023/12/22 08:59:14;;;;;;;5.43;2.40;;;19.30;60.10;;;;;;4966321;28;20027;-62
2023/12/22 09:01:41;;;;;;;7.28;2.65;;;19.50;61.00;;;;;;4963338;28;20030;-61
2023/12/22 09:04:07;;;;;;;16.52;2.88;;;19.50;59.90;;;;;;4968140;28;20023;-62
2023/12/22 09:06:33;;;;;;;15.48;3.08;;;19.60;61.30;;;;;;4964029;28;20023;-62
2023/12/22 09:08:59;;;;;;;9.18;2.75;;;19.70;61.00;;;;;;4963919;28;20027;-62
2023/12/22 09:11:25;;;;;;;7.68;2.95;;;19.70;59.40;;;;;;4964033;28;20031;-62
2023/12/22 09:13:51;;;;;;;11.38;3.25;;;19.70;60.80;;;;;;4965319;28;20027;-62
2023/12/22 09:16:24;;;;;;;10.32;3.03;;;19.80;63.10;;;;;;4966016;28;20031;-62
2023/12/22 09:18:51;;;;;;;13.95;3.28;;;19.80;63.50;;;;;;4967104;28;20054;-63
2023/12/22 09:21:17;;;;;;;9.80;3.20;;;19.80;63.90;;;;;;4964978;28;20054;-62
2023/12/22 09:23:46;;;;;;;14.88;3.10;;;19.70;62.10;;;;;;4963346;28;20023;-64
2023/12/22 09:26:15;;;;;;;14.13;3.20;;;19.60;61.20;;;;;;4968115;28;20505;-64
2023/12/22 09:28:42;;;;;;;12.93;3.38;;;19.60;61.40;;;;;;4965107;28;20038;-64
2023/12/22 09:31:08;;;;;;;15.27;3.15;;;19.60;61.50;;;;;;4966758;28;20037;-63
2023/12/22 09:33:34;;;;;;;17.35;3.95;;;19.70;61.50;;;;;;4964531;28;20085;-64
2023/12/22 09:36:00;;;;;;;11.18;3.30;;;19.80;63.70;;;;;;4967514;28;20549;-63
2023/12/22 09:38:25;;;;;;;12.75;3.08;;;19.80;62.00;;;;;;4965648;28;20060;-64
2023/12/22 09:40:51;;;;;;;17.05;3.92;;;19.80;62.10;;;;;;4961937;28;20027;-62
2023/12/22 09:43:19;;;;;;;9.25;2.92;;;19.80;63.70;;;;;;4962572;28;20019;-62
2023/12/22 09:45:49;;;;;;;19.30;3.95;;;19.80;62.70;;;;;;4964186;28;20417;-63
2023/12/22 09:48:17;;;;;;;;;;;19.80;63.20;;;;;;4966609;28;20026;-56
2023/12/22 09:50:44;;;;;;;23.40;3.35;;;19.80;63.20;;;;;;4967239;28;20397;-60
2023/12/22 09:53:13;;;;;;;30.73;3.65;;;19.80;64.10;;;;;;4962662;28;20031;-62
2023/12/22 09:55:45;;;;;;;13.85;3.22;;;19.80;64.80;;;;;;4965697;28;20440;-61
2023/12/22 09:58:16;;;;;;;17.10;3.45;;;19.80;62.60;;;;;;4961942;28;20105;-61
2023/12/22 10:00:43;;;;;;;15.10;3.25;;;19.70;61.90;;;;;;4966719;28;20493;-61
2023/12/22 10:03:14;;;;;;;9.93;3.15;;;19.70;61.80;;;;;;4967479;28;20023;-61
2023/12/22 10:05:40;;;;;;;11.73;3.42;;;19.70;61.50;;;;;;4968020;28;20441;-62
2023/12/22 10:08:10;;;;;;;18.95;4.13;;;19.70;61.60;;;;;;4967472;28;20128;-61
2023/12/22 10:10:39;;;;;;;10.57;3.15;;;19.60;61.70;;;;;;4967340;28;20022;-62
2023/12/22 10:13:09;;;;;;;13.07;3.38;;;19.60;61.90;;;;;;4966483;28;20516;-62
2023/12/22 10:15:40;;;;;;;;;;;19.60;61.70;;;;;;4968337;28;20501;-62
2023/12/22 10:18:06;;;;;;;11.95;3.22;;;19.60;61.60;;;;;;4967597;28;19910;-62
2023/12/22 10:20:32;;;;;;;12.07;2.78;;;19.70;61.60;;;;;;4967574;28;20038;-62
2023/12/22 10:22:58;;;;;;;7.05;3.15;;;19.60;61.70;;;;;;4959945;28;20030;-61
2023/12/22 10:25:29;;;;;;;19.20;3.20;;;19.60;61.80;;;;;;4966491;28;20022;-61
2023/12/22 10:27:55;;;;;;;11.82;3.30;;;19.60;62.40;;;;;;4960552;28;20023;-62
2023/12/22 10:30:22;;;;;;;14.45;4.15;;;19.60;62.20;;;;;;4967423;28;20047;-61
2023/12/22 10:32:51;;;;;;;12.25;3.40;;;19.60;62.00;;;;;;4961201;28;20033;-62
2023/12/22 10:35:17;;;;;;;13.40;3.25;;;19.50;62.40;;;;;;4964668;28;20087;-62
2023/12/22 10:37:45;;;;;;;13.88;2.83;;;19.50;61.70;;;;;;4960144;28;20046;-61
2023/12/22 10:40:12;;;;;;;10.70;2.88;;;19.50;61.70;;;;;;4966949;28;20038;-62
2023/12/22 10:42:39;;;;;;;14.23;3.42;;;19.60;61.70;;;;;;4960770;28;20027;-61
2023/12/22 10:45:06;;;;;;;6.45;2.53;;;19.50;62.50;;;;;;4967335;28;20030;-61
2023/12/22 10:47:32;;;;;;;8.63;3.28;;;19.50;61.90;;;;;;4960978;28;20785;-61
2023/12/22 10:50:03;;;;;;;14.00;3.15;;;19.50;61.80;;;;;;4966578;28;20030;-61
2023/12/22 10:52:29;;;;;;;13.35;3.30;;;19.50;61.90;;;;;;4962011;28;20370;-62
2023/12/22 10:54:58;;;;;;;12.68;3.53;;;19.50;61.70;;;;;;4966913;28;20080;-62
2023/12/22 10:57:24;;;;;;;11.63;3.38;;;19.50;61.60;;;;;;4962536;28;20034;-62
2023/12/22 10:59:51;;;;;;;15.00;3.97;;;19.50;61.60;;;;;;4965444;28;20031;-62
2023/12/22 11:02:18;;;;;;;12.00;3.13;;;19.50;61.80;;;;;;4964278;28;20707;-62
2023/12/22 11:04:58;;;;;;;6.45;2.72;;;19.50;61.80;;;;;;4965106;28;20038;-62
2023/12/22 11:07:25;;;;;;;13.25;3.28;;;19.50;61.70;;;;;;4962527;28;20023;-62
2023/12/22 11:09:53;;;;;;;10.38;3.03;;;19.50;61.50;;;;;;4965164;28;20034;-62
2023/12/22 11:12:20;;;;;;;12.00;2.92;;;19.50;61.30;;;;;;4964462;28;20035;-62
2023/12/22 11:14:50;;;;;;;13.32;3.35;;;19.50;61.50;;;;;;4956724;28;20098;-62
2023/12/22 11:17:21;;;;;;;12.05;3.58;;;19.50;61.60;;;;;;4964897;28;20042;-62
2023/12/22 11:19:53;;;;;;;8.48;2.85;;;19.50;61.60;;;;;;4957163;28;20457;-62
2023/12/22 11:22:19;;;;;;;9.77;2.83;;;19.50;61.60;;;;;;4968224;28;20022;-62
2023/12/22 11:24:48;;;;;;;10.63;2.97;;;19.50;61.40;;;;;;4970517;28;20023;-62
2023/12/22 11:27:19;;;;;;;6.88;2.70;;;19.50;61.40;;;;;;4970518;28;20038;-62
2023/12/22 11:29:51;;;;;;;10.30;3.05;;;19.50;61.20;;;;;;4970038;28;20027;-63
2023/12/22 11:32:18;;;;;;;14.80;3.05;;;19.50;61.10;;;;;;4970466;28;20088;-63
2023/12/22 11:34:46;;;;;;;11.65;2.88;;;19.50;61.00;;;;;;4970405;28;20034;-63
2023/12/22 11:37:13;;;;;;;13.00;3.08;;;19.60;61.10;;;;;;4970578;28;20027;-63
2023/12/22 11:39:43;;;;;;;9.90;3.20;;;19.60;61.00;;;;;;4969840;28;20042;-63
2023/12/22 11:42:14;;;;;;;6.90;2.70;;;19.50;61.00;;;;;;4970602;28;20486;-63
2023/12/22 11:44:40;;;;;;;8.60;2.95;;;19.60;61.00;;;;;;4970494;28;20039;-63
2023/12/22 11:47:10;;;;;;;8.70;3.10;;;19.50;60.90;;;;;;4970707;28;20085;-63
2023/12/22 11:49:37;;;;;;;12.40;3.42;;;19.60;60.80;;;;;;4969668;28;20034;-63
2023/12/22 11:52:17;;;;;;;8.07;3.25;;;19.60;60.80;;;;;;4970316;28;20033;-63
2023/12/22 11:54:47;;;;;;;15.82;2.90;;;19.60;60.70;;;;;;4970162;28;20031;-63
2023/12/22 11:57:40;;;;;;;7.57;2.95;;;19.60;60.60;;;;;;4970177;28;20061;-63
2023/12/22 12:00:09;;;;;;;9.55;3.08;;;19.60;60.70;;;;;;4964530;28;20039;-63
2023/12/22 12:02:41;;;;;;;8.43;3.13;;;19.60;60.70;;;;;;4970317;28;20113;-63
2023/12/22 12:05:09;;;;;;;10.25;3.72;;;19.60;60.70;;;;;;4970252;28;20402;-62
2023/12/22 12:07:44;;;;;;;12.30;3.15;;;19.60;60.60;;;;;;4970010;28;20050;-63
2023/12/22 12:10:32;;;;;;;11.15;3.10;;;19.60;60.60;;;;;;4962897;28;20409;-63
2023/12/22 12:13:05;;;;;;;7.28;2.83;;;19.60;60.50;;;;;;4969835;28;20036;-64
2023/12/22 12:15:33;;;;;;;8.70;3.13;;;19.60;60.60;;;;;;4969948;28;20030;-63
2023/12/22 12:18:00;;;;;;;8.23;3.30;;;19.60;60.60;;;;;;4969647;28;20023;-63
2023/12/22 12:20:27;;;;;;;7.55;2.65;;;19.50;60.50;;;;;;4969561;28;20026;-63
2023/12/22 12:22:53;;;;;;;10.68;3.35;;;19.50;60.60;;;;;;4969620;28;20062;-63
2023/12/22 12:25:24;;;;;;;7.10;2.70;;;19.50;60.60;;;;;;4970104;28;20379;-63
2023/12/22 12:28:00;;;;;;;8.90;3.10;;;19.50;60.40;;;;;;4969812;28;20122;-63
2023/12/22 12:30:26;;;;;;;12.32;3.25;;;19.50;60.50;;;;;;4969439;28;20122;-63
2023/12/22 12:32:52;;;;;;;8.35;2.88;;;19.50;60.40;;;;;;4968125;28;20581;-63
2023/12/22 12:35:19;;;;;;;8.02;2.70;;;19.50;60.60;;;;;;4969679;28;20575;-63
2023/12/22 12:37:45;;;;;;;7.50;3.00;;;19.50;60.50;;;;;;4968613;28;20027;-63
2023/12/22 12:40:11;;;;;;;8.05;2.97;;;19.50;60.40;;;;;;4969236;28;20038;-63
2023/12/22 12:42:38;;;;;;;7.38;3.00;;;19.50;60.50;;;;;;4969247;28;20021;-63